createdAt,value
2022-09-30T00:01:59.090Z,14.30
2022-09-30T00:04:27.433Z,14.30
2022-09-30T00:06:56.046Z,14.40
2022-09-30T00:09:24.605Z,14.30
2022-09-30T00:11:53.509Z,14.30
2022-09-30T00:14:24.113Z,14.40
2022-09-30T00:16:52.439Z,14.40
2022-09-30T00:19:22.248Z,14.30
2022-09-30T00:21:50.633Z,14.30
2022-09-30T00:24:19.010Z,14.30
2022-09-30T00:26:47.304Z,14.30
2022-09-30T00:29:15.660Z,14.30
2022-09-30T00:31:44.136Z,14.30
2022-09-30T00:34:12.498Z,14.30
2022-09-30T00:36:44.848Z,14.30
2022-09-30T00:39:16.165Z,14.30
2022-09-30T00:41:45.439Z,14.30
2022-09-30T00:44:46.074Z,14.30
2022-09-30T00:47:34.309Z,14.30
2022-09-30T00:50:06.137Z,14.30
2022-09-30T00:52:36.063Z,14.30
2022-09-30T00:55:09.085Z,14.30
2022-09-30T00:57:38.064Z,14.30
2022-09-30T01:00:07.744Z,14.30
2022-09-30T01:02:36.467Z,14.30
2022-09-30T01:05:05.250Z,14.30
2022-09-30T01:07:54.591Z,14.30
2022-09-30T01:10:41.314Z,14.30
2022-09-30T01:13:09.666Z,14.30
2022-09-30T01:15:52.856Z,14.30
2022-09-30T01:18:31.976Z,14.30
2022-09-30T01:21:31.907Z,14.20
2022-09-30T01:24:52.476Z,14.30
2022-09-30T01:27:48.547Z,14.20
2022-09-30T01:30:21.637Z,14.20
2022-09-30T01:33:10.754Z,14.20
2022-09-30T01:36:02.420Z,14.30
2022-09-30T01:38:34.201Z,14.30
2022-09-30T01:41:07.255Z,14.20
2022-09-30T01:43:44.742Z,14.20
2022-09-30T01:46:22.758Z,14.20
2022-09-30T01:49:00.879Z,14.20
2022-09-30T01:51:36.154Z,14.20
2022-09-30T01:54:09.066Z,14.20
2022-09-30T01:56:42.846Z,14.20
2022-09-30T01:59:16.321Z,14.20
2022-09-30T02:01:50.135Z,14.20
2022-09-30T02:04:25.107Z,14.20
2022-09-30T02:06:58.722Z,14.20
2022-09-30T02:09:31.168Z,14.20
2022-09-30T02:12:04.785Z,14.20
2022-09-30T02:14:37.310Z,14.20
2022-09-30T02:17:11.060Z,14.20
2022-09-30T02:19:44.833Z,14.20
2022-09-30T02:22:17.677Z,14.20
2022-09-30T02:24:48.150Z,14.20
2022-09-30T02:27:20.999Z,14.20
2022-09-30T02:29:54.804Z,14.20
2022-09-30T02:32:27.173Z,14.20
2022-09-30T02:35:00.766Z,14.10
2022-09-30T02:37:33.543Z,14.10
2022-09-30T02:40:09.373Z,14.10
2022-09-30T02:42:39.106Z,14.10
2022-09-30T02:45:11.141Z,14.10
2022-09-30T02:47:51.291Z,14.10
2022-09-30T02:50:26.931Z,14.10
2022-09-30T02:53:06.475Z,14.10
2022-09-30T02:55:49.664Z,14.10
2022-09-30T02:58:20.989Z,14.10
2022-09-30T03:00:49.953Z,14.10
2022-09-30T03:03:22.540Z,14.10
2022-09-30T03:05:52.846Z,14.10
2022-09-30T03:08:21.341Z,14.10
2022-09-30T03:10:52.439Z,14.10
2022-09-30T03:13:52.509Z,14.10
2022-09-30T03:16:31.099Z,14.10
2022-09-30T03:19:19.270Z,14.10
2022-09-30T03:22:07.899Z,14.10
2022-09-30T03:24:50.855Z,14.10
2022-09-30T03:27:28.893Z,14.10
2022-09-30T03:30:05.448Z,14.00
2022-09-30T03:32:48.181Z,14.00
2022-09-30T03:35:22.568Z,14.10
2022-09-30T03:38:02.808Z,14.00
2022-09-30T03:40:39.735Z,14.00
2022-09-30T03:43:14.125Z,14.00
2022-09-30T03:45:48.099Z,14.00
2022-09-30T03:48:19.197Z,14.00
2022-09-30T03:50:47.956Z,14.00
2022-09-30T03:53:17.851Z,14.00
2022-09-30T03:55:50.650Z,14.00
2022-09-30T03:58:24.202Z,14.00
2022-09-30T04:00:54.512Z,14.00
2022-09-30T04:03:24.506Z,14.00
2022-09-30T04:05:52.871Z,14.00
2022-09-30T04:08:23.122Z,14.00
2022-09-30T04:10:51.473Z,14.00
2022-09-30T04:13:19.767Z,14.00
2022-09-30T04:15:55.439Z,14.00
2022-09-30T04:18:23.802Z,14.00
2022-09-30T04:20:52.208Z,14.00
2022-09-30T04:23:21.916Z,14.00
2022-09-30T04:25:54.231Z,14.00
2022-09-30T04:28:22.999Z,13.90
2022-09-30T04:30:51.400Z,13.90
2022-09-30T04:33:19.677Z,13.90
2022-09-30T04:35:47.914Z,13.90
2022-09-30T04:38:16.304Z,13.90
2022-09-30T04:40:46.080Z,13.90
2022-09-30T04:43:14.395Z,13.90
2022-09-30T04:45:45.384Z,13.90
2022-09-30T04:48:14.148Z,13.90
2022-09-30T04:50:43.013Z,13.90
2022-09-30T04:53:14.689Z,13.90
2022-09-30T04:55:45.492Z,13.90
2022-09-30T04:58:15.264Z,13.90
2022-09-30T05:00:43.600Z,13.90
2022-09-30T05:03:12.059Z,13.90
2022-09-30T05:05:40.409Z,13.90
2022-09-30T05:08:08.656Z,13.90
2022-09-30T05:10:37.199Z,13.80
2022-09-30T05:13:05.581Z,13.90
2022-09-30T05:15:36.598Z,13.80
2022-09-30T05:18:06.092Z,13.90
2022-09-30T05:20:34.680Z,13.90
2022-09-30T05:23:03.003Z,13.80
2022-09-30T05:25:31.304Z,13.90
2022-09-30T05:27:59.651Z,13.80
2022-09-30T05:30:28.043Z,13.80
2022-09-30T05:32:57.824Z,13.80
2022-09-30T05:35:26.425Z,13.80
2022-09-30T05:37:54.787Z,13.80
2022-09-30T05:40:23.192Z,13.80
2022-09-30T05:42:51.677Z,13.80
2022-09-30T05:45:20.248Z,13.80
2022-09-30T05:47:53.325Z,13.80
2022-09-30T05:50:25.231Z,13.80
2022-09-30T05:52:54.210Z,13.80
2022-09-30T05:55:23.298Z,13.80
2022-09-30T05:57:53.006Z,13.80
2022-09-30T06:00:22.124Z,13.80
2022-09-30T06:02:53.246Z,13.70
2022-09-30T06:05:24.131Z,13.70
2022-09-30T06:07:52.509Z,13.80
2022-09-30T06:10:20.802Z,13.70
2022-09-30T06:12:49.118Z,13.80
2022-09-30T06:15:17.539Z,13.70
2022-09-30T06:17:46.967Z,13.70
2022-09-30T06:20:15.306Z,13.70
2022-09-30T06:22:44.895Z,13.70
2022-09-30T06:25:13.194Z,13.70
2022-09-30T06:27:45.021Z,13.70
2022-09-30T06:30:13.503Z,13.70
2022-09-30T06:32:42.554Z,13.70
2022-09-30T06:35:12.005Z,13.70
2022-09-30T06:37:42.020Z,13.70
2022-09-30T06:40:12.277Z,13.70
2022-09-30T06:42:40.653Z,13.70
2022-09-30T06:45:17.417Z,13.70
2022-09-30T06:47:59.856Z,13.70
2022-09-30T06:50:29.317Z,13.70
2022-09-30T06:52:59.296Z,13.70
2022-09-30T06:55:29.859Z,13.70
2022-09-30T06:57:58.860Z,13.70
2022-09-30T07:00:28.979Z,13.70
2022-09-30T07:02:58.103Z,13.70
2022-09-30T07:05:27.083Z,13.70
2022-09-30T07:07:56.227Z,13.70
2022-09-30T07:10:24.833Z,13.70
2022-09-30T07:12:55.336Z,13.70
2022-09-30T07:15:23.882Z,13.70
2022-09-30T07:17:53.455Z,13.70
2022-09-30T07:20:21.867Z,13.70
2022-09-30T07:22:50.232Z,13.70
2022-09-30T07:25:19.772Z,13.70
2022-09-30T07:27:48.127Z,13.70
2022-09-30T07:30:26.658Z,13.70
2022-09-30T07:32:55.723Z,13.70
2022-09-30T07:35:24.133Z,13.70
2022-09-30T07:37:52.520Z,13.70
2022-09-30T07:40:23.255Z,13.70
2022-09-30T07:42:51.680Z,13.70
2022-09-30T07:45:23.393Z,13.70
2022-09-30T07:47:53.857Z,13.70
2022-09-30T07:50:35.049Z,13.70
2022-09-30T07:58:18.516Z,13.70
2022-09-30T08:01:26.827Z,13.70
2022-09-30T08:32:16.675Z,13.80
2022-09-30T08:34:45.072Z,13.80
2022-09-30T08:37:13.443Z,13.80
2022-09-30T08:39:43.471Z,13.80
2022-09-30T09:10:46.783Z,13.90
2022-09-30T09:33:21.447Z,13.80
2022-09-30T09:35:55.679Z,13.90
2022-09-30T09:38:35.935Z,13.80
2022-09-30T09:41:17.013Z,13.80
2022-09-30T09:43:57.775Z,13.90
2022-09-30T09:46:28.266Z,13.80
2022-09-30T09:49:32.180Z,13.80
2022-09-30T09:52:22.098Z,13.80
2022-09-30T09:54:56.611Z,13.80
2022-09-30T09:57:27.775Z,13.80
2022-09-30T09:59:58.537Z,13.80
2022-09-30T10:02:29.429Z,13.80
2022-09-30T10:05:05.378Z,13.80
2022-09-30T10:07:39.827Z,13.80
2022-09-30T10:10:39.979Z,13.80
2022-09-30T10:13:19.984Z,13.80
2022-09-30T10:15:51.106Z,13.80
2022-09-30T10:18:26.295Z,13.80
2022-09-30T10:20:59.809Z,13.80
2022-09-30T10:23:31.725Z,13.80
2022-09-30T10:26:08.301Z,13.80
2022-09-30T10:28:48.947Z,13.80
2022-09-30T10:31:23.091Z,13.80
2022-09-30T10:34:01.651Z,13.80
2022-09-30T10:36:35.155Z,13.80
2022-09-30T10:39:08.055Z,13.80
2022-09-30T10:41:41.000Z,13.90
2022-09-30T10:44:18.362Z,13.90
2022-09-30T10:46:49.386Z,13.90
2022-09-30T10:49:28.946Z,13.90
2022-09-30T10:52:00.833Z,13.80
2022-09-30T10:54:51.958Z,13.90
2022-09-30T10:57:24.580Z,13.90
2022-09-30T10:59:58.502Z,13.90
2022-09-30T11:02:33.048Z,13.80
2022-09-30T11:05:13.535Z,13.80
2022-09-30T11:07:51.174Z,13.90
2022-09-30T11:10:33.084Z,13.90
2022-09-30T11:13:08.649Z,13.80
2022-09-30T11:15:45.127Z,13.90
2022-09-30T11:18:20.045Z,13.80
2022-09-30T11:20:53.115Z,13.80
2022-09-30T11:23:29.875Z,13.80
2022-09-30T11:26:04.159Z,13.80
2022-09-30T11:28:49.492Z,13.80
2022-09-30T11:31:27.486Z,13.80
2022-09-30T11:34:10.955Z,13.80
2022-09-30T11:36:48.828Z,13.80
2022-09-30T11:39:43.613Z,13.80
2022-09-30T11:42:19.212Z,13.80
2022-09-30T11:44:48.243Z,13.80
2022-09-30T11:47:37.505Z,13.80
2022-09-30T11:50:34.771Z,13.80
2022-09-30T11:53:15.120Z,13.80
2022-09-30T11:55:59.485Z,13.80
2022-09-30T11:58:42.184Z,13.70
2022-09-30T12:01:23.473Z,13.80
2022-09-30T12:04:00.581Z,13.70
2022-09-30T12:06:34.290Z,13.80
2022-09-30T12:09:09.523Z,13.70
2022-09-30T12:11:45.794Z,13.80
2022-09-30T12:14:22.389Z,13.80
2022-09-30T12:16:51.673Z,13.80
2022-09-30T12:19:26.398Z,13.80
2022-09-30T12:22:01.240Z,13.80
2022-09-30T12:24:36.896Z,13.80
2022-09-30T12:27:14.634Z,13.80
2022-09-30T12:30:07.446Z,13.80
2022-09-30T12:33:09.588Z,13.80
2022-09-30T12:36:03.617Z,13.80
2022-09-30T12:38:55.816Z,13.80
2022-09-30T12:41:40.862Z,13.80
2022-09-30T12:44:46.442Z,13.80
2022-09-30T12:47:33.999Z,13.80
2022-09-30T12:50:08.229Z,13.80
2022-09-30T12:52:39.770Z,13.80
2022-09-30T12:55:19.962Z,13.80
2022-09-30T12:57:50.689Z,13.80
2022-09-30T13:00:21.336Z,13.80
2022-09-30T13:02:57.909Z,13.80
2022-09-30T13:06:06.596Z,13.80
2022-09-30T13:09:19.182Z,13.80
2022-09-30T13:11:48.406Z,13.80
2022-09-30T13:14:34.445Z,13.90
2022-09-30T13:17:36.125Z,13.80
2022-09-30T13:20:44.802Z,13.80
2022-09-30T13:23:39.545Z,13.80
2022-09-30T13:26:49.656Z,13.80
2022-09-30T13:29:39.378Z,13.90
2022-09-30T13:32:09.717Z,13.90
2022-09-30T13:35:07.346Z,13.90
2022-09-30T13:37:43.727Z,13.90
2022-09-30T13:40:43.632Z,13.90
2022-09-30T13:43:21.001Z,13.90
2022-09-30T13:45:53.591Z,13.90
2022-09-30T13:48:39.423Z,13.90
2022-09-30T13:51:14.662Z,13.90
2022-09-30T13:53:49.007Z,13.90
2022-09-30T13:56:21.867Z,13.90
2022-09-30T13:59:28.858Z,13.90
2022-09-30T14:02:39.373Z,13.90
2022-09-30T14:05:36.560Z,13.90
2022-09-30T14:08:27.044Z,13.90
2022-09-30T14:11:11.901Z,13.90
2022-09-30T14:13:52.915Z,14.00
2022-09-30T14:16:47.431Z,14.00
2022-09-30T14:19:54.526Z,14.00
2022-09-30T14:22:26.839Z,14.00
2022-09-30T14:24:55.240Z,14.00
2022-09-30T14:27:42.687Z,14.00
2022-09-30T14:30:14.815Z,14.00
2022-09-30T14:32:48.223Z,14.00
2022-09-30T14:35:19.455Z,14.00
2022-09-30T14:37:51.134Z,14.00
2022-09-30T14:40:21.623Z,14.00
2022-09-30T14:42:51.749Z,14.00
2022-09-30T14:45:26.822Z,14.00
2022-09-30T14:47:58.811Z,14.00
2022-09-30T14:50:31.228Z,14.00
2022-09-30T14:53:00.679Z,14.00
2022-09-30T14:55:31.152Z,14.00
2022-09-30T14:58:23.419Z,14.00
2022-09-30T15:01:08.087Z,14.10
2022-09-30T15:03:39.526Z,14.00
2022-09-30T15:06:19.094Z,14.00
2022-09-30T15:08:48.633Z,14.00
2022-09-30T15:11:21.285Z,14.10
2022-09-30T15:13:58.858Z,14.20
2022-09-30T15:16:30.036Z,14.50
2022-09-30T15:18:59.469Z,14.70
2022-09-30T15:21:37.716Z,14.80
2022-09-30T15:24:12.222Z,14.80
2022-09-30T15:26:45.477Z,14.80
2022-09-30T15:29:17.851Z,14.70
2022-09-30T15:31:49.534Z,14.70
2022-09-30T15:34:23.895Z,14.70
2022-09-30T15:37:10.308Z,14.60
2022-09-30T15:40:00.903Z,14.50
2022-09-30T15:42:35.464Z,14.50
2022-09-30T15:45:32.064Z,14.50
2022-09-30T15:48:05.660Z,14.50
2022-09-30T15:50:40.162Z,14.50
2022-09-30T15:53:21.263Z,14.50
2022-09-30T15:55:56.206Z,14.40
2022-09-30T15:58:38.982Z,14.40
2022-09-30T16:01:17.860Z,14.40
2022-09-30T16:03:54.348Z,14.40
2022-09-30T16:06:35.064Z,14.40
2022-09-30T16:09:08.560Z,14.30
2022-09-30T16:11:41.339Z,14.30
2022-09-30T16:14:24.086Z,14.30
2022-09-30T16:16:57.201Z,14.30
2022-09-30T16:19:26.443Z,14.40
2022-09-30T16:21:55.843Z,14.40
2022-09-30T16:24:47.819Z,14.40
2022-09-30T16:27:33.976Z,14.40
2022-09-30T16:30:02.967Z,14.40
2022-09-30T16:32:39.943Z,14.40
2022-09-30T16:35:16.091Z,14.40
2022-09-30T16:37:46.100Z,14.40
2022-09-30T16:40:24.482Z,14.40
2022-09-30T16:42:54.952Z,14.40
2022-09-30T16:45:24.177Z,14.40
2022-09-30T16:47:54.108Z,14.40
2022-09-30T16:50:34.408Z,14.40
2022-09-30T16:53:02.917Z,14.40
2022-09-30T16:55:31.931Z,14.40
2022-09-30T16:58:00.906Z,14.40
2022-09-30T17:00:30.321Z,14.40
2022-09-30T17:03:00.172Z,14.40
2022-09-30T17:05:28.745Z,14.40
2022-09-30T17:07:59.142Z,14.40
2022-09-30T17:10:30.371Z,14.40
2022-09-30T17:13:00.493Z,14.40
2022-09-30T17:15:30.759Z,14.40
2022-09-30T17:18:01.510Z,14.40
2022-09-30T17:20:29.949Z,14.40
2022-09-30T17:22:58.239Z,14.40
2022-09-30T17:25:26.701Z,14.40
2022-09-30T17:27:55.249Z,14.40
2022-09-30T17:30:23.937Z,14.40
2022-09-30T17:32:54.459Z,14.50
2022-09-30T17:35:24.270Z,14.40
2022-09-30T17:37:52.623Z,14.40
2022-09-30T17:40:38.535Z,14.40
2022-09-30T17:43:11.119Z,14.40
2022-09-30T17:45:41.506Z,14.40
2022-09-30T17:48:11.485Z,14.40
2022-09-30T17:50:44.301Z,14.40
2022-09-30T17:53:14.247Z,14.40
2022-09-30T17:55:43.615Z,14.50
2022-09-30T17:58:12.467Z,14.40
2022-09-30T18:00:41.554Z,14.40
2022-09-30T18:03:10.766Z,14.50
2022-09-30T18:05:40.451Z,14.50
2022-09-30T18:08:08.765Z,14.50
2022-09-30T18:10:38.035Z,14.50
2022-09-30T18:13:06.545Z,14.50
2022-09-30T18:15:35.200Z,14.50
2022-09-30T18:18:03.553Z,14.50
2022-09-30T18:20:31.866Z,14.50
2022-09-30T18:23:01.580Z,14.50
2022-09-30T18:25:30.413Z,14.50
2022-09-30T18:28:00.349Z,14.50
2022-09-30T18:30:29.230Z,14.50
2022-09-30T18:32:59.114Z,14.50
2022-09-30T18:35:27.487Z,14.50
2022-09-30T18:37:55.864Z,14.50
2022-09-30T18:40:27.530Z,14.50
2022-09-30T18:42:58.419Z,14.50
2022-09-30T18:45:27.153Z,14.50
2022-09-30T18:47:57.073Z,14.50
2022-09-30T18:50:26.769Z,14.50
2022-09-30T18:52:55.287Z,14.50
2022-09-30T18:55:25.429Z,14.50
2022-09-30T18:57:55.363Z,14.50
2022-09-30T19:00:23.821Z,14.50
2022-09-30T19:02:53.478Z,14.50
2022-09-30T19:05:22.523Z,14.50
2022-09-30T19:07:50.870Z,14.50
2022-09-30T19:10:19.320Z,14.50
2022-09-30T19:12:49.682Z,14.50
2022-09-30T19:15:18.192Z,14.50
2022-09-30T19:17:48.065Z,14.50
2022-09-30T19:20:17.157Z,14.50
2022-09-30T19:22:45.672Z,14.50
2022-09-30T19:25:15.868Z,14.50
2022-09-30T19:27:47.030Z,14.50
2022-09-30T19:30:16.786Z,14.50
2022-09-30T19:32:45.167Z,14.50
2022-09-30T19:35:14.840Z,14.50
2022-09-30T19:37:57.291Z,14.50
2022-09-30T19:40:29.149Z,14.50
2022-09-30T19:42:57.695Z,14.50
2022-09-30T19:45:28.884Z,14.50
2022-09-30T19:47:58.506Z,14.50
2022-09-30T19:50:27.161Z,14.60
2022-09-30T19:52:57.773Z,14.50
2022-09-30T19:55:27.643Z,14.60
2022-09-30T19:57:56.154Z,14.50
2022-09-30T20:00:27.457Z,14.50
2022-09-30T20:02:57.606Z,14.50
2022-09-30T20:05:26.955Z,14.50
2022-09-30T20:07:55.266Z,14.60
2022-09-30T20:10:24.135Z,14.60
2022-09-30T20:12:53.767Z,14.60
2022-09-30T20:15:43.818Z,14.60
2022-09-30T20:18:15.695Z,14.60
2022-09-30T20:20:45.904Z,14.60
2022-09-30T20:23:15.013Z,14.50
2022-09-30T20:25:43.906Z,14.60
2022-09-30T20:28:12.806Z,14.60
2022-09-30T20:30:45.483Z,14.60
2022-09-30T20:33:19.989Z,14.60
2022-09-30T20:35:49.138Z,14.60
2022-09-30T20:38:20.217Z,14.60
2022-09-30T20:40:54.066Z,14.60
2022-09-30T20:43:22.472Z,14.60
2022-09-30T20:45:55.452Z,14.60
2022-09-30T20:48:27.107Z,14.60
2022-09-30T20:51:00.055Z,14.60
2022-09-30T20:53:29.503Z,14.60
2022-09-30T20:56:02.095Z,14.60
2022-09-30T20:58:30.674Z,14.60
2022-09-30T21:01:03.591Z,14.60
2022-09-30T21:03:36.187Z,14.50
2022-09-30T21:06:04.938Z,14.60
2022-09-30T21:08:33.304Z,14.60
2022-09-30T21:11:03.785Z,14.60
2022-09-30T21:13:32.180Z,14.60
2022-09-30T21:16:01.883Z,14.60
2022-09-30T21:18:30.675Z,14.60
2022-09-30T21:21:01.797Z,14.60
2022-09-30T21:23:31.716Z,14.60
2022-09-30T21:26:00.729Z,14.60
2022-09-30T21:28:30.368Z,14.60
2022-09-30T21:30:59.248Z,14.60
2022-09-30T21:33:27.843Z,14.60
2022-09-30T21:36:01.982Z,14.60
2022-09-30T21:38:31.272Z,14.60
2022-09-30T21:41:01.332Z,14.60
2022-09-30T21:43:31.519Z,14.60
2022-09-30T21:46:04.516Z,14.60
2022-09-30T21:48:33.850Z,14.60
2022-09-30T21:51:04.445Z,14.60
2022-09-30T21:53:33.192Z,14.60
2022-09-30T21:56:04.026Z,14.60
2022-09-30T21:58:33.995Z,14.60
2022-09-30T22:01:04.659Z,14.60
2022-09-30T22:03:37.497Z,14.60
2022-09-30T22:06:09.334Z,14.60
2022-09-30T22:08:40.844Z,14.60
2022-09-30T22:11:13.874Z,14.60
2022-09-30T22:13:44.740Z,14.60
2022-09-30T22:16:15.787Z,14.60
2022-09-30T22:18:44.733Z,14.70
2022-09-30T22:21:16.034Z,14.60
2022-09-30T22:23:48.050Z,14.60
2022-09-30T22:26:18.160Z,14.70
2022-09-30T22:28:47.785Z,14.70
2022-09-30T22:31:19.430Z,14.60
2022-09-30T22:34:06.532Z,14.70
2022-09-30T22:36:54.278Z,14.70
2022-09-30T22:39:23.601Z,14.60
2022-09-30T22:41:54.070Z,14.60
2022-09-30T22:44:24.408Z,14.60
2022-09-30T22:46:53.169Z,14.70
2022-09-30T22:49:22.413Z,14.70
2022-09-30T22:51:53.333Z,14.70
2022-09-30T22:54:22.043Z,14.70
2022-09-30T22:56:51.247Z,14.70
2022-09-30T22:59:19.841Z,14.70
2022-09-30T23:01:49.310Z,14.70
2022-09-30T23:04:18.331Z,14.70
2022-09-30T23:06:49.134Z,14.70
2022-09-30T23:09:20.876Z,14.70
2022-09-30T23:11:54.224Z,14.70
2022-09-30T23:14:23.148Z,14.70
2022-09-30T23:16:52.083Z,14.70
2022-09-30T23:19:21.280Z,14.70
2022-09-30T23:21:49.718Z,14.70
2022-09-30T23:24:19.703Z,14.70
2022-09-30T23:26:48.625Z,14.70
2022-09-30T23:29:17.782Z,14.70
2022-09-30T23:32:34.683Z,14.70
2022-09-30T23:35:04.199Z,14.70
2022-09-30T23:37:32.578Z,14.70
2022-09-30T23:40:02.722Z,14.70
2022-09-30T23:42:32.300Z,14.70
2022-09-30T23:45:00.742Z,14.70
2022-09-30T23:47:29.206Z,14.70
2022-09-30T23:49:58.340Z,14.60
2022-09-30T23:52:26.776Z,14.70
2022-09-30T23:54:55.390Z,14.70
2022-09-30T23:57:25.378Z,14.70
2022-09-30T23:59:53.823Z,14.70
